Manhattan Beach, Oregon
Current Conditions -  °F | °C
As of 8:15 AM on Sunday 23 Nov 2014 (Local Time) from KTMK Reporting Station
Clear Clear  
Wind Chill: 52°   Ceiling: Unl
Heat Index: 52°   Visibility: 10mi
Dew Point: 48°   Wind: 8mph
Humidity: 88%   Direction: 180°S
Pressure: 30.28"   Gusts: NA
Location:  45.6132°N, 123.654°W
Report Text: KTMK 231615Z AUTO 18007KT 10SM CLR 11/09 A3028 RMK AO2
Loading
Personal Weather Stations






























Interactive Weather Map New forecast layout! Learn more

10-Day Weather Forecast

Advertisements
Track Severe Weather on mobile